Time;durP1;ratioP1;P1;durP2;ratioP2;P2;SDS_P1;SDS_P2;PMS_P1;PMS_P2;Temp;Humidity;BMP_temperature;BMP_pressure;BME280_temperature;BME280_humidity;BME280_pressure;Samples;Min_cycle;Max_cycle;Signal;HPM_P1;HPM_P2
2023/09/18 00:01:14;;;;;;;6.93;6.30;;;18.90;99.90;;;;;;5072703;28;20471;-61
2023/09/18 00:03:42;;;;;;;8.47;7.57;;;18.90;99.90;;;;;;5073024;28;20440;-60
2023/09/18 00:06:11;;;;;;;8.60;6.93;;;18.80;99.90;;;;;;5072668;28;21064;-61
2023/09/18 00:08:40;;;;;;;7.23;6.60;;;18.80;99.90;;;;;;5072882;28;20446;-61
2023/09/18 00:11:09;;;;;;;7.63;6.80;;;18.80;99.90;;;;;;5072596;28;20481;-60
2023/09/18 00:13:36;;;;;;;7.63;6.67;;;18.70;99.90;;;;;;5072469;28;20944;-61
2023/09/18 00:16:03;;;;;;;7.10;6.40;;;18.70;99.90;;;;;;5072459;28;20444;-62
2023/09/18 00:18:30;;;;;;;7.73;6.40;;;18.70;99.90;;;;;;5072785;28;20505;-61
2023/09/18 00:20:57;;;;;;;7.90;7.10;;;18.70;99.90;;;;;;5073044;28;20470;-61
2023/09/18 00:23:24;;;;;;;7.40;6.70;;;18.60;99.90;;;;;;5072550;28;20444;-61
2023/09/18 00:25:51;;;;;;;8.33;7.20;;;18.60;99.90;;;;;;5072555;28;20452;-60
2023/09/18 00:28:19;;;;;;;9.10;6.90;;;18.60;99.90;;;;;;5075301;28;21066;-60
2023/09/18 00:30:51;;;;;;;7.67;6.87;;;18.60;99.90;;;;;;5076953;28;20848;-60
2023/09/18 00:33:19;;;;;;;7.00;6.40;;;18.60;99.90;;;;;;5076991;28;20424;-60
2023/09/18 00:35:47;;;;;;;7.70;6.37;;;18.60;99.90;;;;;;5076749;28;20960;-60
2023/09/18 00:38:13;;;;;;;6.73;6.20;;;18.60;99.90;;;;;;5076784;28;20478;-61
2023/09/18 00:40:40;;;;;;;7.70;7.00;;;18.50;99.90;;;;;;5076765;28;20459;-60
2023/09/18 00:43:08;;;;;;;8.40;7.57;;;18.50;99.90;;;;;;5076992;28;20438;-60
2023/09/18 00:45:40;;;;;;;7.67;6.37;;;18.50;99.90;;;;;;5076546;28;20924;-60
2023/09/18 00:48:07;;;;;;;7.60;6.80;;;18.50;99.90;;;;;;5076908;28;20511;-60
2023/09/18 00:50:34;;;;;;;7.70;6.63;;;18.50;99.90;;;;;;5077008;28;20471;-60
2023/09/18 00:53:02;;;;;;;7.20;6.50;;;18.50;99.90;;;;;;5076631;28;20450;-60
2023/09/18 00:55:31;;;;;;;6.83;6.13;;;18.60;99.90;;;;;;5076507;28;20949;-60
2023/09/18 00:57:58;;;;;;;7.63;6.10;;;18.60;99.90;;;;;;5076484;28;20827;-60
2023/09/18 01:00:25;;;;;;;7.03;6.33;;;18.60;99.90;;;;;;5077275;28;20559;-61
2023/09/18 01:02:53;;;;;;;7.20;6.30;;;18.50;99.90;;;;;;5076461;28;20443;-61
2023/09/18 01:05:20;;;;;;;7.57;6.87;;;18.60;99.90;;;;;;5076563;28;20813;-60
2023/09/18 01:07:47;;;;;;;8.17;6.30;;;18.60;99.90;;;;;;5076372;28;20536;-60
2023/09/18 01:10:16;;;;;;;8.57;6.50;;;18.50;99.90;;;;;;5076088;28;20508;-60
2023/09/18 01:12:48;;;;;;;6.90;6.30;;;18.60;99.90;;;;;;5076637;28;20475;-60
2023/09/18 01:15:22;;;;;;;8.03;6.90;;;18.60;99.90;;;;;;5076311;28;20431;-61
2023/09/18 01:17:49;;;;;;;6.40;5.80;;;18.50;99.90;;;;;;5075856;28;20470;-61
2023/09/18 01:20:18;;;;;;;6.17;5.57;;;18.50;99.90;;;;;;5076198;28;20468;-60
2023/09/18 01:22:46;;;;;;;6.40;5.33;;;18.50;99.90;;;;;;5076442;28;20568;-61
2023/09/18 01:25:13;;;;;;;7.70;7.00;;;18.50;99.90;;;;;;5075912;28;20817;-60
2023/09/18 01:27:39;;;;;;;7.83;7.10;;;18.50;99.90;;;;;;5076150;28;20533;-60
2023/09/18 01:30:07;;;;;;;6.80;6.20;;;18.50;99.90;;;;;;5076091;28;20461;-61
2023/09/18 01:32:37;;;;;;;7.50;6.70;;;18.50;99.90;;;;;;5075947;28;20436;-60
2023/09/18 01:35:07;;;;;;;10.30;6.40;;;18.50;99.90;;;;;;5075857;28;20442;-61
2023/09/18 01:37:35;;;;;;;9.67;7.90;;;18.50;99.90;;;;;;5075901;28;20467;-61
2023/09/18 01:40:06;;;;;;;7.57;6.87;;;18.50;99.90;;;;;;5074691;28;20463;-61
2023/09/18 01:42:34;;;;;;;8.20;7.13;;;18.50;99.90;;;;;;5075845;28;20479;-61
2023/09/18 01:45:02;;;;;;;6.90;6.20;;;18.50;99.90;;;;;;5075655;28;20444;-61
2023/09/18 01:47:29;;;;;;;8.67;7.77;;;18.50;99.90;;;;;;5075554;28;20855;-59
2023/09/18 01:49:56;;;;;;;7.90;7.20;;;18.50;99.90;;;;;;5075775;28;20463;-61
2023/09/18 01:52:23;;;;;;;7.30;6.70;;;18.40;99.90;;;;;;5075456;28;20957;-60
2023/09/18 01:54:50;;;;;;;7.50;6.80;;;18.40;99.90;;;;;;5075776;28;20448;-60
2023/09/18 01:57:18;;;;;;;8.57;7.13;;;18.40;99.90;;;;;;5076240;28;20488;-60
2023/09/18 01:59:45;;;;;;;7.47;6.77;;;18.30;99.90;;;;;;5081498;28;20443;-60
2023/09/18 02:02:12;;;;;;;12.83;6.83;;;18.30;99.90;;;;;;5084115;22;20492;-60
2023/09/18 02:04:39;;;;;;;7.23;6.53;;;18.30;99.90;;;;;;5035086;28;20926;-60
2023/09/18 02:07:07;;;;;;;7.13;6.50;;;18.30;99.90;;;;;;5035018;28;20855;-57
2023/09/18 02:09:33;;;;;;;6.93;6.23;;;18.30;99.90;;;;;;5035370;28;20442;-56
2023/09/18 02:12:00;;;;;;;6.73;6.13;;;18.30;99.90;;;;;;5035186;28;20610;-58
2023/09/18 02:14:31;;;;;;;8.07;7.27;;;18.30;99.90;;;;;;5035295;28;20438;-59
2023/09/18 02:16:57;;;;;;;7.33;6.63;;;18.30;99.90;;;;;;5035346;28;20472;-60
2023/09/18 02:19:24;;;;;;;7.67;6.97;;;18.30;99.90;;;;;;5035428;28;20444;-59
2023/09/18 02:21:51;;;;;;;8.47;6.87;;;18.30;99.90;;;;;;5035975;28;20472;-60
2023/09/18 02:24:18;;;;;;;8.10;6.47;;;18.30;99.90;;;;;;5035322;28;20453;-60
2023/09/18 02:26:45;;;;;;;7.70;7.00;;;18.30;99.90;;;;;;5035381;28;20437;-59
2023/09/18 02:29:13;;;;;;;6.90;6.30;;;18.20;99.90;;;;;;5035272;28;20446;-60
2023/09/18 02:31:42;;;;;;;7.30;6.37;;;18.20;99.90;;;;;;5034936;28;20523;-60
2023/09/18 02:34:09;;;;;;;7.03;6.20;;;18.20;99.90;;;;;;5035097;28;20445;-59
2023/09/18 02:36:36;;;;;;;7.67;6.70;;;18.20;99.90;;;;;;5035060;28;20452;-59
2023/09/18 02:39:03;;;;;;;8.03;6.80;;;18.20;99.90;;;;;;5034990;28;20482;-59
2023/09/18 02:41:30;;;;;;;7.60;6.27;;;18.20;99.90;;;;;;5035092;28;20464;-60
2023/09/18 02:43:57;;;;;;;9.90;7.60;;;18.20;99.90;;;;;;5035047;28;20437;-60
2023/09/18 02:46:23;;;;;;;7.47;6.77;;;18.20;99.90;;;;;;5034713;28;20482;-59
2023/09/18 02:48:52;;;;;;;6.90;6.30;;;18.20;99.90;;;;;;5034967;28;20806;-59
2023/09/18 02:51:18;;;;;;;7.60;6.90;;;18.20;99.90;;;;;;5033703;28;20942;-60
2023/09/18 02:53:45;;;;;;;8.90;6.83;;;18.10;99.90;;;;;;5034969;28;20507;-59
2023/09/18 02:56:12;;;;;;;7.80;7.10;;;18.20;99.90;;;;;;5035045;28;20471;-60
2023/09/18 02:58:39;;;;;;;6.73;6.10;;;18.10;99.90;;;;;;5034765;28;20500;-60
2023/09/18 03:01:08;;;;;;;6.67;5.63;;;18.10;99.90;;;;;;5034407;28;20934;-60
2023/09/18 03:03:35;;;;;;;7.40;6.50;;;18.10;99.90;;;;;;5034751;28;20474;-59
2023/09/18 03:06:04;;;;;;;7.30;6.57;;;18.10;99.90;;;;;;5034712;28;20444;-58
2023/09/18 03:08:32;;;;;;;6.43;5.90;;;18.10;99.90;;;;;;5034473;28;20442;-59
2023/09/18 03:10:58;;;;;;;6.97;6.33;;;18.10;99.90;;;;;;5034547;28;20547;-58
2023/09/18 03:13:27;;;;;;;8.30;7.23;;;18.10;99.90;;;;;;5034481;28;20814;-60
2023/09/18 03:15:54;;;;;;;7.63;6.60;;;18.10;99.90;;;;;;5034335;28;20451;-58
2023/09/18 03:18:21;;;;;;;6.67;6.07;;;18.20;99.90;;;;;;5034183;28;20477;-58
2023/09/18 03:20:48;;;;;;;7.57;6.73;;;18.20;99.90;;;;;;5033925;28;20848;-59
2023/09/18 03:23:16;;;;;;;7.27;6.53;;;18.20;99.90;;;;;;5033693;28;20473;-59
2023/09/18 03:25:43;;;;;;;7.20;6.50;;;18.30;99.90;;;;;;5034373;28;20441;-58
2023/09/18 03:28:10;;;;;;;7.40;6.47;;;18.30;99.90;;;;;;5034296;28;20496;-59
2023/09/18 03:30:36;;;;;;;7.37;5.83;;;18.30;99.90;;;;;;5033809;28;20446;-59
2023/09/18 03:33:04;;;;;;;6.67;5.80;;;18.40;99.90;;;;;;5033798;28;20462;-59
2023/09/18 03:35:45;;;;;;;7.47;6.43;;;18.40;99.90;;;;;;5033846;28;20442;-59
2023/09/18 03:38:12;;;;;;;7.27;6.30;;;18.40;99.90;;;;;;5033563;28;20468;-59
2023/09/18 03:40:40;;;;;;;7.07;6.37;;;18.50;99.90;;;;;;5033793;28;20456;-59
2023/09/18 03:43:08;;;;;;;7.67;5.90;;;18.50;99.90;;;;;;5033846;28;20496;-59
2023/09/18 03:45:34;;;;;;;7.13;6.43;;;18.50;99.90;;;;;;5033816;28;20454;-58
2023/09/18 03:48:01;;;;;;;7.73;6.23;;;18.50;99.90;;;;;;5033619;28;20883;-59
2023/09/18 03:50:28;;;;;;;6.73;6.13;;;18.60;99.90;;;;;;5033652;28;20442;-59
2023/09/18 03:52:55;;;;;;;6.70;6.10;;;18.60;99.90;;;;;;5033447;28;20464;-60
2023/09/18 03:55:22;;;;;;;8.47;6.37;;;18.60;99.90;;;;;;5033768;28;20445;-59
2023/09/18 03:57:50;;;;;;;6.70;6.10;;;18.60;99.90;;;;;;5033991;28;20472;-59
2023/09/18 04:00:17;;;;;;;7.47;6.77;;;18.60;99.90;;;;;;5033415;28;20447;-59
2023/09/18 04:02:43;;;;;;;6.70;6.10;;;18.50;99.90;;;;;;5072915;22;20492;-60
2023/09/18 04:05:10;;;;;;;7.00;6.30;;;18.50;99.90;;;;;;5054223;28;20439;-60
2023/09/18 04:07:37;;;;;;;8.33;6.57;;;18.50;99.90;;;;;;5053145;28;20442;-60
2023/09/18 04:12:14;;;;;;;9.03;6.20;;;18.40;99.90;;;;;;5090735;27;20621;-60
2023/09/18 04:14:40;;;;;;;6.93;6.30;;;18.40;99.90;;;;;;5091009;28;20452;-61
2023/09/18 04:17:07;;;;;;;7.87;6.23;;;18.40;99.90;;;;;;5090648;28;20445;-60
2023/09/18 04:19:34;;;;;;;8.13;6.43;;;18.40;99.90;;;;;;5090326;28;20567;-60
2023/09/18 04:22:01;;;;;;;8.33;6.40;;;18.30;99.90;;;;;;5091943;28;20978;-61
2023/09/18 04:24:28;;;;;;;8.03;7.10;;;18.30;99.90;;;;;;5090354;28;20448;-61
2023/09/18 04:26:54;;;;;;;7.80;6.70;;;18.30;99.90;;;;;;5090349;28;20453;-61
2023/09/18 04:29:23;;;;;;;8.43;6.83;;;18.30;99.90;;;;;;5091627;28;20447;-63
2023/09/18 04:31:49;;;;;;;8.63;6.87;;;18.30;99.90;;;;;;5090158;28;20484;-62
2023/09/18 04:34:16;;;;;;;7.87;6.37;;;18.20;99.90;;;;;;5090477;28;20440;-61
2023/09/18 04:36:44;;;;;;;6.90;6.30;;;18.20;99.90;;;;;;5091336;28;20452;-61
2023/09/18 04:39:10;;;;;;;7.33;6.63;;;18.20;99.90;;;;;;5092208;28;20505;-61
2023/09/18 04:41:37;;;;;;;10.03;7.00;;;18.20;99.90;;;;;;5094581;28;20461;-61
2023/09/18 04:44:05;;;;;;;7.30;6.60;;;18.20;99.90;;;;;;5096866;28;20439;-61
2023/09/18 04:46:34;;;;;;;7.00;6.40;;;18.20;99.90;;;;;;5095637;28;20471;-61
2023/09/18 04:49:03;;;;;;;7.83;6.97;;;18.20;99.90;;;;;;5094163;28;20444;-61
2023/09/18 04:51:32;;;;;;;7.07;6.37;;;18.20;99.90;;;;;;5095742;28;20522;-62
2023/09/18 04:53:59;;;;;;;7.67;6.77;;;18.20;99.90;;;;;;5096109;28;20452;-61
2023/09/18 04:56:26;;;;;;;7.87;7.07;;;18.10;99.90;;;;;;5091970;28;20440;-60
2023/09/18 04:58:53;;;;;;;8.67;6.97;;;18.10;99.90;;;;;;5091707;28;20454;-60
2023/09/18 05:01:20;;;;;;;8.77;6.40;;;18.10;99.90;;;;;;5090113;28;20464;-60
2023/09/18 05:03:48;;;;;;;7.20;6.47;;;18.10;99.90;;;;;;5090843;28;20444;-60
2023/09/18 05:06:16;;;;;;;8.87;7.73;;;18.00;99.90;;;;;;5089772;28;20445;-60
2023/09/18 05:08:43;;;;;;;7.80;7.10;;;18.10;99.90;;;;;;5090347;28;20446;-60
2023/09/18 05:11:11;;;;;;;8.17;7.37;;;18.00;99.90;;;;;;5089105;28;20497;-60
2023/09/18 05:13:37;;;;;;;8.37;7.00;;;18.00;99.90;;;;;;5090123;28;20535;-60
2023/09/18 05:16:05;;;;;;;7.67;6.97;;;18.10;99.90;;;;;;5089525;28;20808;-61
2023/09/18 05:18:32;;;;;;;8.43;6.23;;;18.10;99.90;;;;;;5089496;28;20466;-60
2023/09/18 05:21:01;;;;;;;8.70;6.97;;;18.10;99.90;;;;;;5089527;28;20437;-61
2023/09/18 05:23:27;;;;;;;7.13;6.43;;;18.20;99.90;;;;;;5076678;28;20448;-61
2023/09/18 05:25:54;;;;;;;7.27;6.57;;;18.20;99.90;;;;;;5076386;28;20448;-61
2023/09/18 05:28:21;;;;;;;6.80;6.20;;;18.30;99.90;;;;;;5076009;28;20466;-61
2023/09/18 05:30:48;;;;;;;7.47;6.60;;;18.30;99.90;;;;;;5075120;28;20846;-61
2023/09/18 05:33:14;;;;;;;7.67;6.77;;;18.30;99.90;;;;;;5075592;28;20444;-62
2023/09/18 05:35:42;;;;;;;7.07;6.30;;;18.40;99.90;;;;;;5075617;28;20809;-61
2023/09/18 05:38:11;;;;;;;8.07;7.20;;;18.50;99.90;;;;;;5075529;28;20440;-61
2023/09/18 05:40:38;;;;;;;9.47;7.47;;;18.60;99.90;;;;;;5075287;28;20447;-61
2023/09/18 05:43:05;;;;;;;9.27;6.87;;;18.70;99.90;;;;;;5075357;28;20461;-61
2023/09/18 05:45:33;;;;;;;6.80;6.20;;;18.70;99.90;;;;;;5075258;28;20627;-61
2023/09/18 05:48:03;;;;;;;7.40;6.77;;;18.80;99.90;;;;;;5075228;28;21022;-63
2023/09/18 05:50:31;;;;;;;7.73;7.00;;;18.90;99.90;;;;;;5075571;28;20448;-61
2023/09/18 05:53:00;;;;;;;7.57;6.83;;;19.00;99.90;;;;;;5075162;28;20986;-61
2023/09/18 05:55:28;;;;;;;7.60;6.90;;;19.10;99.90;;;;;;5074954;28;20938;-62
2023/09/18 05:57:55;;;;;;;7.30;6.60;;;19.20;99.90;;;;;;5075289;28;20446;-61
2023/09/18 06:00:22;;;;;;;7.80;6.83;;;19.30;99.90;;;;;;5075120;28;20446;-62
2023/09/18 06:02:50;;;;;;;6.67;6.07;;;19.40;99.90;;;;;;5075197;28;20467;-61
2023/09/18 06:05:21;;;;;;;7.27;6.67;;;19.50;99.90;;;;;;5075237;28;20456;-60
2023/09/18 06:07:48;;;;;;;9.00;6.00;;;19.50;99.90;;;;;;5078673;28;20438;-61
2023/09/18 06:10:15;;;;;;;6.90;6.30;;;19.60;99.90;;;;;;5075317;28;20507;-60
2023/09/18 06:12:43;;;;;;;7.13;6.53;;;19.70;99.90;;;;;;5074849;28;20482;-61
2023/09/18 06:15:11;;;;;;;6.63;6.00;;;19.80;99.90;;;;;;5075164;28;20438;-62
2023/09/18 06:17:39;;;;;;;6.43;5.83;;;19.80;99.90;;;;;;5074756;28;20446;-63
2023/09/18 06:20:09;;;;;;;7.60;6.10;;;19.90;99.90;;;;;;5074545;28;20477;-61
2023/09/18 06:22:36;;;;;;;7.60;6.47;;;20.00;99.90;;;;;;5074477;28;20518;-61
2023/09/18 06:25:03;;;;;;;7.47;5.80;;;20.00;99.90;;;;;;5074463;28;20440;-63
2023/09/18 06:27:31;;;;;;;6.80;6.20;;;20.10;99.90;;;;;;5074600;28;20446;-63
2023/09/18 06:30:00;;;;;;;6.80;6.10;;;20.10;99.90;;;;;;5074325;28;20551;-62
2023/09/18 06:32:27;;;;;;;7.30;6.33;;;20.10;99.90;;;;;;5074122;28;20621;-60
2023/09/18 06:34:54;;;;;;;7.37;6.13;;;20.20;99.90;;;;;;5073051;28;20451;-62
2023/09/18 06:37:21;;;;;;;6.53;5.93;;;20.20;99.90;;;;;;5074235;28;20443;-62
2023/09/18 06:39:48;;;;;;;7.47;6.77;;;20.20;99.90;;;;;;5074252;28;20438;-62
2023/09/18 06:42:15;;;;;;;6.63;6.00;;;20.30;99.90;;;;;;5074096;28;20525;-61
2023/09/18 06:44:42;;;;;;;6.87;5.87;;;20.40;99.90;;;;;;5074171;28;20446;-62
2023/09/18 06:47:10;;;;;;;6.73;6.13;;;20.40;99.90;;;;;;5074079;28;20443;-63
2023/09/18 06:49:37;;;;;;;6.53;5.90;;;20.40;99.90;;;;;;5074008;28;20522;-63
2023/09/18 06:52:04;;;;;;;8.00;6.10;;;20.50;99.90;;;;;;5073647;28;20487;-61
2023/09/18 06:54:31;;;;;;;7.00;6.30;;;20.50;99.90;;;;;;5073462;28;20458;-62
2023/09/18 06:56:58;;;;;;;6.60;5.90;;;20.60;99.90;;;;;;5073524;28;20814;-62
2023/09/18 06:59:25;;;;;;;5.83;5.27;;;20.60;99.90;;;;;;5073942;28;20435;-62
2023/09/18 07:01:51;;;;;;;8.83;6.20;;;20.70;99.90;;;;;;5074273;28;20467;-62
2023/09/18 07:04:19;;;;;;;7.23;6.50;;;20.70;99.90;;;;;;5073847;28;20443;-61
2023/09/18 07:06:47;;;;;;;6.20;5.60;;;20.70;99.90;;;;;;5073339;28;20927;-62
2023/09/18 07:09:14;;;;;;;6.73;5.77;;;20.80;99.90;;;;;;5073925;28;20861;-62
2023/09/18 07:11:40;;;;;;;7.93;6.07;;;20.90;99.90;;;;;;5073374;28;20494;-62
2023/09/18 07:14:07;;;;;;;8.10;6.37;;;20.90;99.90;;;;;;5073847;28;20806;-62
2023/09/18 07:16:34;;;;;;;6.57;5.80;;;21.00;99.90;;;;;;5073370;28;20794;-62
2023/09/18 07:19:04;;;;;;;6.90;6.13;;;21.00;99.90;;;;;;5073754;28;20435;-62
2023/09/18 07:21:34;;;;;;;6.20;5.60;;;21.10;99.90;;;;;;5073862;28;20463;-62
2023/09/18 07:24:01;;;;;;;10.50;5.63;;;21.20;99.90;;;;;;5073979;28;20483;-62
2023/09/18 07:26:28;;;;;;;6.23;5.63;;;21.20;99.90;;;;;;5074452;28;20445;-62
2023/09/18 07:28:55;;;;;;;8.33;5.90;;;21.30;99.90;;;;;;5073765;28;20454;-62
2023/09/18 07:31:21;;;;;;;5.93;5.43;;;21.40;99.90;;;;;;5074959;28;20486;-62
2023/09/18 07:33:48;;;;;;;7.80;5.77;;;21.40;99.90;;;;;;5074986;28;20474;-61
2023/09/18 07:36:15;;;;;;;5.70;5.20;;;21.50;99.90;;;;;;5074264;28;20465;-61
2023/09/18 07:38:44;;;;;;;5.93;5.17;;;21.60;99.90;;;;;;5073620;28;20514;-62
2023/09/18 07:41:10;;;;;;;4.77;4.37;;;21.60;99.90;;;;;;5074034;28;20460;-61
2023/09/18 07:43:37;;;;;;;5.57;4.97;;;21.70;99.90;;;;;;5072923;28;20439;-61
2023/09/18 07:46:04;;;;;;;5.13;4.63;;;21.80;99.90;;;;;;5072359;28;20475;-62
2023/09/18 07:48:31;;;;;;;7.43;4.77;;;21.90;99.90;;;;;;5072594;28;20857;-62
2023/09/18 07:50:57;;;;;;;5.37;4.83;;;22.10;99.90;;;;;;5072678;28;20447;-61
2023/09/18 07:53:24;;;;;;;8.50;5.10;;;22.20;99.90;;;;;;5072915;28;20440;-62
2023/09/18 07:55:57;;;;;;;5.43;4.97;;;22.20;99.90;;;;;;5072893;28;20808;-62
2023/09/18 07:58:27;;;;;;;5.80;5.30;;;22.40;99.90;;;;;;5073014;28;20420;-62
2023/09/18 08:00:55;;;;;;;8.13;4.77;;;22.50;99.90;;;;;;5072475;28;20434;-62
2023/09/18 08:03:22;;;;;;;5.73;5.00;;;22.70;99.90;;;;;;5072737;28;20447;-62
2023/09/18 08:05:51;;;;;;;8.30;5.50;;;22.80;99.90;;;;;;5072807;28;20494;-62
2023/09/18 08:08:20;;;;;;;6.30;5.20;;;22.90;99.90;;;;;;5072728;28;20447;-61
2023/09/18 08:10:46;;;;;;;5.90;5.30;;;23.00;99.90;;;;;;5072671;28;20940;-62
2023/09/18 08:13:15;;;;;;;7.13;4.80;;;23.10;99.90;;;;;;5072652;28;20471;-62
2023/09/18 08:15:41;;;;;;;7.77;4.77;;;23.20;99.90;;;;;;5072680;28;20440;-63
2023/09/18 08:18:08;;;;;;;5.23;4.60;;;23.30;99.90;;;;;;5072778;28;20440;-62
2023/09/18 08:20:36;;;;;;;5.73;4.90;;;23.50;99.90;;;;;;5072936;28;20450;-63
2023/09/18 08:23:05;;;;;;;6.43;5.30;;;23.60;99.90;;;;;;5072585;28;20528;-61
2023/09/18 08:25:32;;;;;;;6.60;5.90;;;23.70;99.90;;;;;;5072850;28;20486;-62
2023/09/18 08:28:00;;;;;;;5.10;4.43;;;23.80;99.90;;;;;;5072847;28;20439;-63
2023/09/18 08:30:28;;;;;;;7.20;5.03;;;23.90;99.90;;;;;;5072690;28;20911;-62
2023/09/18 08:32:55;;;;;;;4.80;4.40;;;24.00;99.50;;;;;;5072551;28;20483;-62
2023/09/18 08:35:22;;;;;;;5.33;4.83;;;24.00;99.10;;;;;;5072829;28;20440;-62
2023/09/18 08:37:49;;;;;;;4.90;4.50;;;24.10;98.70;;;;;;5072953;28;20443;-62
2023/09/18 08:40:16;;;;;;;7.03;5.33;;;24.10;98.30;;;;;;5072869;28;20940;-62
2023/09/18 08:42:46;;;;;;;9.83;5.17;;;24.10;98.10;;;;;;5072536;28;20451;-64
2023/09/18 08:45:18;;;;;;;4.80;4.13;;;24.10;98.00;;;;;;5072675;28;20424;-62
2023/09/18 08:47:47;;;;;;;4.77;4.20;;;24.20;97.80;;;;;;5073095;28;20431;-62
2023/09/18 08:50:14;;;;;;;5.80;4.50;;;24.30;97.40;;;;;;5072454;28;20443;-61
2023/09/18 08:52:42;;;;;;;7.80;5.00;;;24.40;96.90;;;;;;5072144;28;21023;-61
2023/09/18 08:55:10;;;;;;;7.80;4.20;;;24.60;96.30;;;;;;5072543;28;20436;-61
2023/09/18 08:57:39;;;;;;;15.20;5.03;;;24.60;95.60;;;;;;5073922;28;20450;-62
2023/09/18 09:00:08;;;;;;;6.50;3.80;;;24.70;95.10;;;;;;5076188;28;20443;-64
2023/09/18 09:02:35;;;;;;;8.57;4.40;;;24.80;94.50;;;;;;5076024;28;20965;-62
2023/09/18 09:05:03;;;;;;;7.60;3.90;;;24.80;93.90;;;;;;5075840;28;20447;-62
2023/09/18 09:07:31;;;;;;;6.27;3.90;;;24.90;93.30;;;;;;5075935;28;20462;-61
2023/09/18 09:09:58;;;;;;;8.67;4.47;;;25.00;92.60;;;;;;5075945;28;20450;-62
2023/09/18 09:12:49;;;;;;;5.70;3.70;;;25.10;92.10;;;;;;5075644;28;20857;-63
2023/09/18 09:15:16;;;;;;;5.50;3.50;;;25.20;91.70;;;;;;5076075;28;20416;-62
2023/09/18 09:17:44;;;;;;;5.77;3.20;;;25.20;91.10;;;;;;5076535;28;20439;-62
2023/09/18 09:20:13;;;;;;;6.40;3.67;;;25.30;90.70;;;;;;5075652;28;20880;-63
2023/09/18 09:22:41;;;;;;;8.43;3.67;;;25.30;90.20;;;;;;5077029;28;20833;-62
2023/09/18 09:25:23;;;;;;;5.60;3.40;;;25.40;89.70;;;;;;5076975;28;20440;-63
2023/09/18 09:27:50;;;;;;;5.80;3.73;;;25.40;88.60;;;;;;5076036;28;20416;-62
2023/09/18 09:30:21;;;;;;;7.23;3.60;;;25.40;88.20;;;;;;5075467;28;20431;-62
2023/09/18 09:32:50;;;;;;;7.20;3.60;;;25.30;87.70;;;;;;5075300;28;20901;-61
2023/09/18 09:35:22;;;;;;;6.27;4.17;;;25.30;87.40;;;;;;5075932;28;20448;-62
2023/09/18 09:37:51;;;;;;;8.20;3.50;;;25.30;87.30;;;;;;5076093;28;20426;-62
2023/09/18 09:40:20;;;;;;;9.17;3.97;;;25.30;87.20;;;;;;5075698;28;20443;-63
2023/09/18 09:42:47;;;;;;;6.47;3.40;;;25.20;87.50;;;;;;5075565;28;20451;-63
2023/09/18 09:45:15;;;;;;;5.10;3.47;;;25.20;86.90;;;;;;5075329;28;20490;-63
2023/09/18 09:47:43;;;;;;;5.73;3.43;;;25.20;86.70;;;;;;5075627;28;20462;-63
2023/09/18 09:50:11;;;;;;;7.70;3.23;;;25.30;86.50;;;;;;5075527;28;20447;-63
2023/09/18 09:52:44;;;;;;;4.60;3.27;;;25.30;86.20;;;;;;5075610;28;20487;-62
2023/09/18 09:55:25;;;;;;;6.50;2.93;;;25.20;85.80;;;;;;5075667;28;20435;-62
2023/09/18 09:57:57;;;;;;;9.07;3.53;;;25.20;85.80;;;;;;5075400;28;20427;-62
2023/09/18 10:00:32;;;;;;;5.63;3.07;;;25.10;85.80;;;;;;5076048;28;20424;-62
2023/09/18 10:03:01;;;;;;;4.93;3.67;;;25.10;85.80;;;;;;5077517;28;20472;-62
2023/09/18 10:05:31;;;;;;;7.00;2.90;;;25.10;85.50;;;;;;5077687;28;20447;-62
2023/09/18 10:08:05;;;;;;;5.60;3.43;;;25.10;85.30;;;;;;5079595;28;20466;-62
2023/09/18 10:10:35;;;;;;;4.33;3.50;;;25.10;85.30;;;;;;5078913;28;20459;-62
2023/09/18 10:13:09;;;;;;;7.40;3.87;;;25.00;85.40;;;;;;5079447;28;20487;-62
2023/09/18 10:15:38;;;;;;;4.97;3.60;;;25.00;85.20;;;;;;5076837;28;20920;-62
2023/09/18 10:18:10;;;;;;;6.33;3.50;;;25.10;85.00;;;;;;5075534;28;21043;-62
2023/09/18 10:20:41;;;;;;;6.30;3.80;;;25.20;84.40;;;;;;5075326;28;20523;-62
2023/09/18 10:23:20;;;;;;;4.03;3.33;;;25.20;83.60;;;;;;5075221;28;20464;-62
2023/09/18 10:25:51;;;;;;;4.57;3.17;;;25.20;83.10;;;;;;5074910;28;20456;-62
2023/09/18 10:28:19;;;;;;;6.20;2.90;;;25.20;82.70;;;;;;5075066;28;20431;-62
2023/09/18 10:30:46;;;;;;;3.60;3.30;;;25.20;82.20;;;;;;5074929;28;20444;-62
2023/09/18 10:33:13;;;;;;;6.07;3.20;;;25.20;82.40;;;;;;5074709;28;20509;-63
2023/09/18 10:35:41;;;;;;;4.03;3.17;;;25.20;82.30;;;;;;5075401;28;20470;-64
2023/09/18 10:38:10;;;;;;;9.83;3.23;;;25.30;81.80;;;;;;5074634;28;20444;-62
2023/09/18 10:40:38;;;;;;;4.60;2.63;;;25.20;81.50;;;;;;5074785;28;20444;-63
2023/09/18 10:43:09;;;;;;;5.40;2.90;;;25.20;81.40;;;;;;5074079;28;20456;-63
2023/09/18 10:45:37;;;;;;;7.57;3.17;;;25.10;81.50;;;;;;5075233;28;20804;-63
2023/09/18 10:48:08;;;;;;;4.00;3.00;;;25.10;81.90;;;;;;5075322;28;20435;-63
2023/09/18 10:50:36;;;;;;;5.37;2.70;;;25.20;81.90;;;;;;5074787;28;20423;-63
2023/09/18 10:53:03;;;;;;;5.70;3.17;;;25.20;81.40;;;;;;5074274;28;20519;-63
2023/09/18 10:55:33;;;;;;;7.30;3.23;;;25.30;81.10;;;;;;5074391;28;20871;-63
2023/09/18 10:58:01;;;;;;;4.40;2.57;;;25.40;80.70;;;;;;5074182;28;20530;-62
2023/09/18 11:00:30;;;;;;;6.53;2.70;;;25.40;80.20;;;;;;5073911;28;20436;-63
2023/09/18 11:03:12;;;;;;;2.97;2.57;;;25.40;80.00;;;;;;5073594;28;20467;-63
2023/09/18 11:05:39;;;;;;;7.60;3.00;;;25.30;80.10;;;;;;5074047;28;20446;-63
2023/09/18 11:08:25;;;;;;;5.57;2.90;;;25.30;80.20;;;;;;5073498;28;20455;-63
2023/09/18 11:11:09;;;;;;;4.77;2.67;;;25.30;79.90;;;;;;5073616;28;20912;-63
2023/09/18 11:13:38;;;;;;;4.50;2.90;;;25.20;80.20;;;;;;5073485;28;20467;-63
2023/09/18 11:16:20;;;;;;;4.93;2.70;;;25.10;80.40;;;;;;5073303;28;20440;-63
2023/09/18 11:18:53;;;;;;;6.93;2.67;;;25.00;80.50;;;;;;5073579;28;20905;-63
2023/09/18 11:21:25;;;;;;;4.97;3.00;;;25.10;80.70;;;;;;5073118;28;20509;-62
2023/09/18 11:24:00;;;;;;;5.60;3.27;;;25.10;80.40;;;;;;5073645;28;20416;-63
2023/09/18 11:26:31;;;;;;;6.33;2.80;;;25.20;79.90;;;;;;5074235;28;20459;-62
2023/09/18 11:29:01;;;;;;;5.30;2.73;;;25.30;79.50;;;;;;5073133;28;20929;-63
2023/09/18 11:31:44;;;;;;;7.73;2.70;;;25.40;79.40;;;;;;5073565;28;20517;-62
2023/09/18 11:34:15;;;;;;;5.30;2.90;;;25.50;78.30;;;;;;5073218;28;20475;-62
2023/09/18 11:36:42;;;;;;;3.87;2.30;;;25.70;77.80;;;;;;5073255;28;20447;-62
2023/09/18 11:39:11;;;;;;;4.57;2.70;;;25.90;76.90;;;;;;5073214;28;20443;-62
2023/09/18 11:41:40;;;;;;;5.37;3.10;;;25.90;76.00;;;;;;5073462;28;21004;-62
2023/09/18 11:44:32;;;;;;;8.40;3.17;;;25.90;75.70;;;;;;5073098;28;20527;-62
2023/09/18 11:47:00;;;;;;;6.10;2.37;;;25.80;75.60;;;;;;5073074;28;20517;-63
2023/09/18 11:49:28;;;;;;;4.83;3.10;;;25.80;75.50;;;;;;5072766;28;20450;-62
2023/09/18 11:51:55;;;;;;;8.80;5.67;;;25.70;75.60;;;;;;5073276;28;20464;-62
2023/09/18 11:54:22;;;;;;;6.47;2.60;;;25.70;75.90;;;;;;5072973;28;20528;-63
2023/09/18 11:56:51;;;;;;;5.00;2.63;;;25.70;75.90;;;;;;5072963;28;20439;-62
2023/09/18 11:59:19;;;;;;;7.50;2.20;;;25.70;75.80;;;;;;5072499;28;20898;-62
2023/09/18 12:01:53;;;;;;;2.40;1.90;;;25.60;75.80;;;;;;5072465;28;20479;-62
2023/09/18 12:04:29;;;;;;;4.50;2.70;;;25.50;76.00;;;;;;5073183;28;20447;-63
2023/09/18 12:06:56;;;;;;;5.33;2.80;;;25.30;76.50;;;;;;5073082;28;20435;-62
2023/09/18 12:09:25;;;;;;;4.50;1.93;;;25.30;77.00;;;;;;5072759;28;20465;-62
2023/09/18 12:11:55;;;;;;;3.60;2.30;;;25.20;77.40;;;;;;5072570;28;20476;-62
2023/09/18 12:14:22;;;;;;;6.00;2.23;;;25.20;77.70;;;;;;5072854;28;20474;-63
2023/09/18 12:16:50;;;;;;;4.67;2.30;;;25.10;77.80;;;;;;5072383;28;20937;-62
2023/09/18 12:19:18;;;;;;;5.63;2.30;;;25.10;77.90;;;;;;5072755;28;20461;-62
2023/09/18 12:21:48;;;;;;;3.47;2.17;;;25.10;78.00;;;;;;5072480;28;20574;-62
2023/09/18 12:24:15;;;;;;;3.20;2.03;;;25.10;77.90;;;;;;5073966;28;20436;-62
2023/09/18 12:26:42;;;;;;;6.67;5.53;;;25.20;77.50;;;;;;5073026;28;20440;-63
2023/09/18 12:29:11;;;;;;;5.63;2.30;;;25.30;77.20;;;;;;5072451;28;20446;-62
2023/09/18 12:31:38;;;;;;;2.83;2.43;;;25.40;76.60;;;;;;5073256;28;20876;-62
2023/09/18 12:34:07;;;;;;;3.17;1.60;;;25.40;76.30;;;;;;5076977;28;20475;-62
2023/09/18 12:36:35;;;;;;;4.80;1.47;;;25.40;76.10;;;;;;5077686;28;20443;-62
2023/09/18 12:39:02;;;;;;;5.87;2.03;;;25.40;75.90;;;;;;5079159;28;20444;-63
2023/09/18 12:41:30;;;;;;;4.53;1.87;;;25.40;75.60;;;;;;5079181;28;20477;-63
2023/09/18 12:43:57;;;;;;;3.60;1.93;;;25.50;75.30;;;;;;5081806;28;20482;-63
2023/09/18 12:46:25;;;;;;;3.80;1.87;;;25.60;75.00;;;;;;5081792;28;20459;-63
2023/09/18 12:48:52;;;;;;;4.47;1.83;;;25.60;74.60;;;;;;5082625;28;20439;-61
2023/09/18 12:51:22;;;;;;;4.20;1.70;;;25.60;74.60;;;;;;5081820;28;20474;-62
2023/09/18 12:53:59;;;;;;;3.10;1.60;;;25.70;74.40;;;;;;5079888;28;20511;-61